DTTF/GAF METAR and TAF weather

Enter ICAO airport designator
Station Type Date Time Source
DTTF METAR 2018/01/19 17:00 UTC NOAA

DTTF 191700Z 08004KT 9999 BKN033 14/00 Q1012 NOSIG


Station Type Date Time Source
DTTF Decoded METAR 2018/01/19 17:00 UTC NOAA

Gafsa, Tunisia (DTTF) 34-25N 008-49E 314M
Jan 19, 2018 - 12:00 PM EST / 2018.01.19 1700 UTC
Wind: from the E (080 degrees) at 5 MPH (4 KT):0
Visibility: greater than 7 mile(s):0
Sky conditions: mostly cloudy
Temperature: 57 F (14 C)
Dew Point: 32 F (0 C)
Relative Humidity: 38%
Pressure (altimeter): 29.88 in. Hg (1012 hPa)
ob: DTTF 191700Z 08004KT 9999 BKN033 14/00 Q1012 NOSIG
cycle: 17

Station Type Date Time Source
DTTF TAF 2017/08/22 04:45 UTC NOAA

TAF TAF DTTF 220640Z 2204/2216 05014KT CAVOK


Example: see airport list